Campo volo Apricena Fly ULM

IT-0531 · Apulia, Włochy

Historia METAR IT-0531 · Campo volo Apricena Fly ULM

Poniżej widzisz METAR-y z ostatnich kilku dni. Wybierz rok, aby przeglądać starsze METAR-y, począwszy od roku 2007.

15 lipca 2024

Czas Kod Pogoda Temp. Widoczność Sufit Wiatr METAR/SPECI
12:55
V
38 °C 10 km+ - 090° 090° 10 kt METAR LIBA 151055Z 09010KT CAVOK 38/14 Q1012 RMK SKC VIS MIN 9999 WIND THR11 12008KT WIND THR29 /////KT BLU
11:55
V
38 °C 10 km+ - 230° 230° 3 kt METAR LIBA 150955Z 23003KT CAVOK 38/13 Q1012
10:55
V
36 °C 10 km+ - 140° 140° 3 kt METAR LIBA 150855Z 14003KT CAVOK 36/14 Q1012 RMK SKC VIS MIN 9999 WIND THR11 11003KT WIND THR29 /////KT BLU
09:55
V
34 °C 10 km+ - 200° 200° 3 kt METAR LIBA 150755Z 20003KT CAVOK 34/15 Q1012
08:55
V
31 °C 10 km+ - 270° 270° 4 kt METAR LIBA 150655Z 27004KT CAVOK 31/18 Q1013
07:55
V
27 °C 10 km+ - 240° 240° 5 kt METAR LIBA 150555Z 24005KT CAVOK 27/16 Q1012
06:55
V
25 °C 10 km+ - 280° 280° 5 kt METAR LIBA 150455Z 28005KT CAVOK 25/15 Q1012 RMK SKC VIS MIN 9999 WIND THR11 28005KT WIND THR29 /////KT BLU
05:55
V
23 °C 10 km+ - 280° 280° 6 kt METAR LIBA 150355Z 28006KT CAVOK 23/15 Q1012
04:55
V
24 °C 10 km+ - 270° 270° 6 kt METAR LIBA 150255Z 27006KT CAVOK 24/15 Q1012
03:55
V
24 °C 10 km+ - 270° 270° 7 kt METAR LIBA 150155Z 27007KT CAVOK 24/16 Q1012
02:55
V
23 °C 10 km+ - 270° 270° 4 kt METAR LIBA 150055Z 27004KT CAVOK 23/19 Q1012
01:55
V
25 °C 10 km+ - 280° 280° 5 kt METAR LIBA 142355Z 28005KT CAVOK 25/22 Q1012
00:55
V
25 °C 10 km+ - 260° 260° 3 kt METAR LIBA 142255Z 26003KT CAVOK 25/22 Q1012

14 lipca 2024

Czas Kod Pogoda Temp. Widoczność Sufit Wiatr METAR/SPECI
23:55
V
26 °C 10 km+ - 260° 260° 5 kt METAR LIBA 142155Z 26005KT CAVOK 26/21 Q1012
22:55
V
27 °C 10 km+ - 240° 240° 5 kt METAR LIBA 142055Z 24005KT CAVOK 27/20 Q1012
21:55
V
29 °C 10 km+ - 180° 180° 2 kt METAR LIBA 141955Z 18002KT CAVOK 29/19 Q1012
20:55
V
31 °C 10 km+ - 160° 160° 5 kt METAR LIBA 141855Z 16005KT CAVOK 31/20 Q1012
19:55
V
34 °C 10 km+ - 150° 150° 4 kt METAR LIBA 141755Z 15004KT CAVOK 34/17 Q1011
18:55
V
37 °C 10 km+ - 020° 020° 5 kt METAR LIBA 141655Z 02005KT CAVOK 37/11 Q1011
17:55
V
38 °C 10 km+ - 020° 020° 8 kt METAR LIBA 141555Z 02008KT CAVOK 38/10 Q1010 RMK SKC VIS MIN 9999 WIND THR11 02009KT WIND THR29 /////KT BLU
16:55
V
38 °C 10 km+ - 310° 310° 8 kt METAR LIBA 141455Z 31008KT CAVOK 38/10 Q1010 RMK SKC VIS MIN 9999 WIND THR11 30007KT WIND THR29 /////KT BLU
15:55
V
38 °C 10 km+ - 270° 270° 10 kt METAR LIBA 141355Z 27010KT CAVOK 38/12 Q1011 RMK FEW FEW200 VIS MIN 9999 WIND THR11 30010KT WIND THR29 /////KT BLU
14:55
V
38 °C 10 km+ - 280° 280° 11 kt METAR LIBA 141255Z 28011KT CAVOK 38/13 Q1011 RMK FEW FEW200 VIS MIN 9999 WIND THR11 30010KT WIND THR29 /////KT BLU
13:55
V
37 °C 10 km+ - 280° 280° 12 kt METAR LIBA 141155Z 28012KT 9999 FEW060 37/16 Q1011
12:55
V
36 °C 10 km+ - 290° 290° 15 kt METAR LIBA 141055Z 29015KT 9999 FEW060 36/18 Q1011
11:55
V
36 °C 10 km+ - 270° 270° 12 kt METAR LIBA 140955Z 27012KT 9999 FEW050 36/19 Q1011 RMK SCT SCT180 VIS MIN 9999 WIND THR11 27016KT WIND THR29 /////KT BLU
10:55
V
34 °C 10 km+ - 280° 280° 12 kt METAR LIBA 140855Z 28012KT CAVOK 34/20 Q1011
09:55
V
32 °C 10 km+ - 280° 280° 13 kt METAR LIBA 140755Z 28013KT CAVOK 32/23 Q1011
08:55
V
30 °C 10 km+ - 290° 290° 15 kt METAR LIBA 140655Z 29015KT CAVOK 30/23 Q1011 RMK SKC VIS MIN 9999 WIND THR11 30014KT WIND THR29 /////KT BLU
07:55
V
28 °C 10 km+ - 270° 270° 10 kt METAR LIBA 140555Z 27010KT CAVOK 28/24 Q1011 RMK SKC VIS MIN 9999 WIND THR11 27012KT WIND THR29 /////KT BLU
06:55
V
25 °C 10 km+ - 240° 240° 4 kt METAR LIBA 140455Z 24004KT CAVOK 25/15 Q1011
05:55
V
25 °C 10 km+ - 280° 280° 7 kt METAR LIBA 140355Z 28007KT CAVOK 25/13 Q1010 RMK SKC VIS MIN 9999 WIND THR11 28008KT WIND THR29 /////KT BLU
04:55
V
24 °C 10 km+ - 250° 250° 5 kt METAR LIBA 140255Z 25005KT CAVOK 24/13 Q1010 RMK SKC VIS MIN 9999 WIND THR11 27003KT WIND THR29 /////KT BLU
03:55
V
24 °C 10 km+ - 260° 260° 6 kt METAR LIBA 140155Z 26006KT CAVOK 24/12 Q1010 RMK SKC VIS MIN 9999 WIND THR11 25005KT WIND THR29 /////KT BLU
02:55
V
26 °C 10 km+ - 250° 250° 6 kt METAR LIBA 140055Z 25006KT CAVOK 26/12 Q1009 RMK SKC VIS MIN 9999 WIND THR11 26005KT WIND THR29 /////KT BLU
01:55
V
26 °C 10 km+ - 280° 280° 6 kt METAR LIBA 132355Z 28006KT CAVOK 26/12 Q1010
00:55
V
27 °C 10 km+ - 230° 230° 4 kt METAR LIBA 132255Z 23004KT CAVOK 27/15 Q1010

13 lipca 2024

Czas Kod Pogoda Temp. Widoczność Sufit Wiatr METAR/SPECI
23:55
V
27 °C 10 km+ - Var Var 2 kt METAR LIBA 132155Z VRB02KT CAVOK 27/19 Q1010 RMK SKC VIS MIN 9999 WIND THR11 VRB01KT WIND THR29 /////KT BLU
22:55
V
27 °C 10 km+ - 160° 160° 3 kt METAR LIBA 132055Z 16003KT CAVOK 27/20 Q1010
21:55
V
30 °C 10 km+ - Var Var 2 kt METAR LIBA 131955Z VRB02KT CAVOK 30/18 Q1010 RMK SKC VIS MIN 9999 WIND THR11 VRB02KT WIND THR29 /////KT BLU
20:55
V
30 °C 10 km+ - 110° 110° 5 kt METAR LIBA 131855Z 11005KT CAVOK 30/20 Q1009 RMK SKC VIS MIN 9999 WIND THR11 11005KT WIND THR29 /////KT BLU
19:55
V
31 °C 10 km+ - 090° 090° 8 kt METAR LIBA 131755Z 09008KT CAVOK 31/22 Q1009
18:55
V
33 °C 10 km+ - 090° 090° 10 kt METAR LIBA 131655Z 09010KT CAVOK 33/22 Q1009
17:55
V
33 °C 10 km+ - 090° 090° 15 kt METAR LIBA 131555Z 09015KT CAVOK 33/20 Q1008 RMK SKC VIS MIN 9999 WIND THR11 09014KT WIND THR29 /////KT BLU
16:55
V
35 °C 10 km+ - 090° 090° 16 kt METAR LIBA 131455Z 09016KT 9999 FEW050 35/19 Q1008 RMK FEW VIS MIN 9999 WIND THR11 08015KT WIND THR29 /////KT BLU
15:55
V
35 °C 10 km+ - 090° 090° 16 kt METAR LIBA 131355Z 09016KT 9999 FEW050 35/18 Q1008 RMK FEW VIS MIN 9999 WIND THR11 08016KT WIND THR29 /////KT BLU
14:55
V
35 °C 10 km+ - 080° 080° 16 kt METAR LIBA 131255Z 08016KT CAVOK 35/22 Q1008
13:55
V
36 °C 10 km+ - 070° 070° 14 kt METAR LIBA 131155Z 07014KT CAVOK 36/22 Q1008
12:55
V
39 °C 10 km+ - 110° 110° 5 kt METAR LIBA 131055Z 11005KT CAVOK 39/13 Q1009 RMK SKC VIS MIN 9999 WIND THR11 14006KT WIND THR29 /////KT BLU
11:55
V
38 °C 10 km+ - 240° 240° 5 kt METAR LIBA 130955Z 24005KT CAVOK 38/14 Q1009 RMK SKC VIS MIN 9999 WIND THR11 27006KT WIND THR29 /////KT BLU
10:55
V
36 °C 10 km+ - 240° 240° 6 kt METAR LIBA 130855Z 24006KT CAVOK 36/14 Q1009 RMK SKC VIS MIN 9999 WIND THR11 28005KT WIND THR29 /////KT BLU
09:55
V
35 °C 10 km+ - 300° 300° 5 kt METAR LIBA 130755Z 30005KT CAVOK 35/15 Q1009 RMK SKC VIS MIN 9999 WIND THR11 28005KT WIND THR29 /////KT BLU
08:55
V
32 °C 10 km+ - 270° 270° 4 kt METAR LIBA 130655Z 27004KT CAVOK 32/15 Q1010 RMK SKC VIS MIN 9999 WIND THR11 26004KT WIND THR29 /////KT BLU
07:55
V
29 °C 10 km+ - 240° 240° 3 kt METAR LIBA 130555Z 24003KT CAVOK 29/15 Q1010 RMK SKC VIS MIN 9999 WIND THR11 25003KT WIND THR29 /////KT BLU
Zgłoś zmianę